createdAt,value
2018-04-15T00:00:35.959Z,60.69
2018-04-15T00:03:03.490Z,60.52
2018-04-15T00:05:32.118Z,60.57
2018-04-15T00:08:01.175Z,60.35
2018-04-15T00:10:28.709Z,60.54
2018-04-15T00:12:56.817Z,60.56
2018-04-15T00:15:25.128Z,60.74
2018-04-15T00:17:52.659Z,60.82
2018-04-15T00:20:20.195Z,60.67
2018-04-15T00:22:47.804Z,60.72
2018-04-15T00:25:16.133Z,60.55
2018-04-15T00:27:43.664Z,60.52
2018-04-15T00:30:11.191Z,60.53
2018-04-15T00:32:38.968Z,60.69
2018-04-15T00:35:06.498Z,60.99
2018-04-15T00:37:34.669Z,61.97
2018-04-15T00:40:02.201Z,61.91
2018-04-15T00:42:29.889Z,62.28
2018-04-15T00:44:58.560Z,63.06
2018-04-15T00:47:26.114Z,63.42
2018-04-15T00:49:54.177Z,64.49
2018-04-15T00:52:21.747Z,64.74
2018-04-15T00:54:49.295Z,65.21
2018-04-15T00:57:16.859Z,65.42
2018-04-15T00:59:45.258Z,66.60
2018-04-15T01:02:12.794Z,66.64
2018-04-15T01:04:40.362Z,67.41
2018-04-15T01:07:09.670Z,68.61
2018-04-15T01:09:38.059Z,67.90
2018-04-15T01:12:06.334Z,67.94
2018-04-15T01:14:34.471Z,68.60
2018-04-15T01:17:01.990Z,68.12
2018-04-15T01:19:29.554Z,69.07
2018-04-15T01:21:58.102Z,69.34
2018-04-15T01:24:25.639Z,68.80
2018-04-15T01:26:53.162Z,69.63
2018-04-15T01:29:20.735Z,70.43
2018-04-15T01:31:48.266Z,71.63
2018-04-15T01:34:16.635Z,72.18
2018-04-15T01:36:44.201Z,71.66
2018-04-15T01:39:12.229Z,72.61
2018-04-15T01:41:39.792Z,73.23
2018-04-15T01:44:08.424Z,72.83
2018-04-15T01:46:35.953Z,72.31
2018-04-15T01:49:04.566Z,72.61
2018-04-15T01:51:32.126Z,72.84
2018-04-15T01:53:59.654Z,72.36
2018-04-15T01:56:27.846Z,72.79
2018-04-15T01:58:55.408Z,73.39
2018-04-15T02:01:23.390Z,73.00
2018-04-15T02:03:50.936Z,73.26
2018-04-15T02:06:19.287Z,73.29
2018-04-15T02:08:47.470Z,73.06
2018-04-15T02:11:15.726Z,73.22
2018-04-15T02:13:43.938Z,73.60
2018-04-15T02:16:11.518Z,73.65
2018-04-15T02:18:39.274Z,73.79
2018-04-15T02:21:07.333Z,73.67
2018-04-15T02:23:34.904Z,73.34
2018-04-15T02:26:02.436Z,74.09
2018-04-15T02:28:30.017Z,73.91
2018-04-15T02:30:57.573Z,73.96
2018-04-15T02:33:25.210Z,74.50
2018-04-15T02:35:52.806Z,74.40
2018-04-15T02:38:21.322Z,74.23
2018-04-15T02:40:48.866Z,74.67
2018-04-15T02:43:16.402Z,75.05
2018-04-15T02:45:44.473Z,75.57
2018-04-15T02:48:12.819Z,75.38
2018-04-15T02:50:40.369Z,75.85
2018-04-15T02:53:07.984Z,75.69
2018-04-15T02:55:35.581Z,75.76
2018-04-15T02:58:03.142Z,76.21
2018-04-15T03:00:31.473Z,76.26
2018-04-15T03:02:59.018Z,76.29
2018-04-15T03:05:27.117Z,75.88
2018-04-15T03:07:54.660Z,76.48
2018-04-15T03:10:22.219Z,76.21
2018-04-15T03:12:50.478Z,73.82
2018-04-15T03:15:18.482Z,71.21
2018-04-15T03:17:46.818Z,70.36
2018-04-15T03:20:14.353Z,69.39
2018-04-15T03:22:42.650Z,69.23
2018-04-15T03:25:10.186Z,69.41
2018-04-15T03:27:37.930Z,69.44
2018-04-15T03:30:05.503Z,69.73
2018-04-15T03:32:33.032Z,70.14
2018-04-15T03:35:00.555Z,72.75
2018-04-15T03:37:29.185Z,72.75
2018-04-15T03:39:56.746Z,73.28
2018-04-15T03:42:25.059Z,74.38
2018-04-15T03:44:53.371Z,74.19
2018-04-15T03:47:20.929Z,75.02
2018-04-15T03:49:49.291Z,75.35
2018-04-15T03:52:16.831Z,75.05
2018-04-15T03:54:44.381Z,75.73
2018-04-15T03:57:11.950Z,75.18
2018-04-15T03:59:39.863Z,74.94
2018-04-15T04:02:07.897Z,74.90
2018-04-15T04:04:35.487Z,75.14
2018-04-15T04:07:03.623Z,74.87
2018-04-15T04:09:31.177Z,74.75
2018-04-15T04:11:59.296Z,74.50
2018-04-15T04:14:27.735Z,74.75
2018-04-15T04:16:55.259Z,73.63
2018-04-15T04:19:34.690Z,70.52
2018-04-15T04:22:15.231Z,69.30
2018-04-15T04:24:55.390Z,69.09
2018-04-15T04:27:22.966Z,69.17
2018-04-15T04:29:50.499Z,69.46
2018-04-15T04:32:18.026Z,69.42
2018-04-15T04:34:45.586Z,70.04
2018-04-15T04:37:13.140Z,70.29
2018-04-15T04:39:41.534Z,70.75
2018-04-15T04:42:09.959Z,71.34
2018-04-15T04:44:38.434Z,72.27
2018-04-15T04:47:05.961Z,73.37
2018-04-15T04:49:34.230Z,73.48
2018-04-15T04:52:01.778Z,73.56
2018-04-15T04:54:29.320Z,73.17
2018-04-15T04:56:56.875Z,72.59
2018-04-15T04:59:24.406Z,72.20
2018-04-15T05:01:52.503Z,71.52
2018-04-15T05:04:20.050Z,70.80
2018-04-15T05:06:48.134Z,70.32
2018-04-15T05:09:15.670Z,69.92
2018-04-15T05:11:44.310Z,69.73
2018-04-15T05:14:12.493Z,69.65
2018-04-15T05:16:40.035Z,69.61
2018-04-15T05:19:07.736Z,69.57
2018-04-15T05:21:35.770Z,69.38
2018-04-15T05:24:03.298Z,69.48
2018-04-15T05:26:31.752Z,69.69
2018-04-15T05:28:59.304Z,70.26
2018-04-15T05:31:26.837Z,71.54
2018-04-15T05:33:54.404Z,72.21
2018-04-15T05:36:21.954Z,72.70
2018-04-15T05:38:50.276Z,72.81
2018-04-15T05:41:17.806Z,72.79
2018-04-15T05:43:46.062Z,72.80
2018-04-15T05:46:14.237Z,72.94
2018-04-15T05:48:43.160Z,72.92
2018-04-15T05:51:10.698Z,72.93
2018-04-15T05:53:38.612Z,73.10
2018-04-15T05:56:06.187Z,73.54
2018-04-15T05:58:33.727Z,74.11
2018-04-15T06:01:02.042Z,74.49
2018-04-15T06:03:29.581Z,74.79
2018-04-15T06:05:57.875Z,74.69
2018-04-15T06:08:25.475Z,74.43
2018-04-15T06:10:54.218Z,74.13
2018-04-15T06:13:22.589Z,74.16
2018-04-15T06:15:50.647Z,74.48
2018-04-15T06:18:18.180Z,74.10
2018-04-15T06:20:45.703Z,74.38
2018-04-15T06:23:14.113Z,74.36
2018-04-15T06:25:41.652Z,74.51
2018-04-15T06:28:09.243Z,74.67
2018-04-15T06:30:37.706Z,74.63
2018-04-15T06:33:05.350Z,74.64
2018-04-15T06:35:32.882Z,75.22
2018-04-15T06:38:00.833Z,75.46
2018-04-15T06:40:28.360Z,75.55
2018-04-15T06:42:55.901Z,75.50
2018-04-15T06:45:24.015Z,75.43
2018-04-15T06:47:52.209Z,75.62
2018-04-15T06:50:19.755Z,76.10
2018-04-15T06:52:47.307Z,76.19
2018-04-15T06:55:14.868Z,76.33
2018-04-15T06:57:42.401Z,76.97
2018-04-15T07:00:10.614Z,77.07
2018-04-15T07:02:38.402Z,77.17
2018-04-15T07:05:05.934Z,77.54
2018-04-15T07:07:34.190Z,78.29
2018-04-15T07:10:01.731Z,78.34
2018-04-15T07:12:29.855Z,78.31
2018-04-15T07:14:57.905Z,78.80
2018-04-15T07:17:25.439Z,78.90
2018-04-15T07:19:52.968Z,78.89
2018-04-15T07:22:21.374Z,79.33
2018-04-15T07:24:48.918Z,79.24
2018-04-15T07:27:16.451Z,79.20
2018-04-15T07:29:44.014Z,79.08
2018-04-15T07:32:11.546Z,78.92
2018-04-15T07:34:39.175Z,78.80
2018-04-15T07:37:06.842Z,78.73
2018-04-15T07:39:35.592Z,78.74
2018-04-15T07:42:03.159Z,78.48
2018-04-15T07:44:31.215Z,78.44
2018-04-15T07:46:58.755Z,78.79
2018-04-15T07:49:26.846Z,78.93
2018-04-15T07:51:54.415Z,78.86
2018-04-15T07:54:21.951Z,78.64
2018-04-15T07:56:49.508Z,78.26
2018-04-15T07:59:17.064Z,77.95
2018-04-15T08:01:45.835Z,77.43
2018-04-15T08:04:13.386Z,77.32
2018-04-15T08:06:41.606Z,77.16
2018-04-15T08:09:09.176Z,76.79
2018-04-15T08:11:37.660Z,76.46
2018-04-15T08:14:05.896Z,76.17
2018-04-15T08:16:33.435Z,75.50
2018-04-15T08:19:00.978Z,75.37
2018-04-15T08:21:29.417Z,74.79
2018-04-15T08:23:57.210Z,74.35
2018-04-15T08:26:24.748Z,73.73
2018-04-15T08:28:52.307Z,73.12
2018-04-15T08:31:20.685Z,72.51
2018-04-15T08:33:48.221Z,72.40
2018-04-15T08:36:15.763Z,72.68
2018-04-15T08:38:43.907Z,72.31
2018-04-15T08:41:11.436Z,71.92
2018-04-15T08:43:39.916Z,71.04
2018-04-15T08:46:08.497Z,70.35
2018-04-15T08:48:36.637Z,69.18
2018-04-15T08:51:04.234Z,68.57
2018-04-15T08:53:31.776Z,68.25
2018-04-15T08:55:59.952Z,68.57
2018-04-15T08:58:27.496Z,68.24
2018-04-15T09:00:55.720Z,68.02
2018-04-15T09:03:23.980Z,67.65
2018-04-15T09:05:52.126Z,67.23
2018-04-15T09:08:19.731Z,66.84
2018-04-15T09:10:47.915Z,66.41
2018-04-15T09:13:15.801Z,65.75
2018-04-15T09:15:44.133Z,64.80
2018-04-15T09:18:11.681Z,64.67
2018-04-15T09:20:39.247Z,66.51
2018-04-15T09:23:07.733Z,61.32
2018-04-15T09:25:35.285Z,58.98
2018-04-15T09:28:02.847Z,59.32
2018-04-15T09:30:30.462Z,59.33
2018-04-15T09:32:58.063Z,59.54
2018-04-15T09:35:25.622Z,59.67
2018-04-15T09:37:53.756Z,60.02
2018-04-15T09:40:21.316Z,60.52
2018-04-15T09:42:48.858Z,60.79
2018-04-15T09:45:17.147Z,61.15
2018-04-15T09:47:45.127Z,61.31
2018-04-15T09:50:12.670Z,61.73
2018-04-15T09:52:40.237Z,62.00
2018-04-15T09:55:08.249Z,62.09
2018-04-15T09:57:35.794Z,62.12
2018-04-15T10:00:04.237Z,61.96
2018-04-15T10:02:31.823Z,61.33
2018-04-15T10:04:59.362Z,60.83
2018-04-15T10:07:27.923Z,60.74
2018-04-15T10:09:56.118Z,60.11
2018-04-15T10:12:25.501Z,60.22
2018-04-15T10:14:54.390Z,59.92
2018-04-15T10:17:21.944Z,59.16
2018-04-15T10:19:49.473Z,58.81
2018-04-15T10:22:17.749Z,57.77
2018-04-15T10:24:45.284Z,57.56
2018-04-15T10:27:12.843Z,56.55
2018-04-15T10:29:40.414Z,55.71
2018-04-15T10:32:08.248Z,55.83
2018-04-15T10:34:35.890Z,55.19
2018-04-15T10:37:03.486Z,54.27
2018-04-15T10:39:31.999Z,53.84
2018-04-15T10:42:00.147Z,54.55
2018-04-15T10:44:28.252Z,54.36
2018-04-15T10:46:55.791Z,54.75
2018-04-15T10:49:23.741Z,55.11
2018-04-15T10:51:51.278Z,55.17
2018-04-15T10:54:18.812Z,55.53
2018-04-15T10:56:46.386Z,56.13
2018-04-15T10:59:14.502Z,56.35
2018-04-15T11:01:42.601Z,56.99
2018-04-15T11:04:10.151Z,57.57
2018-04-15T11:06:38.505Z,58.21
2018-04-15T11:09:07.257Z,58.81
2018-04-15T11:11:35.394Z,58.84
2018-04-15T11:14:03.702Z,58.98
2018-04-15T11:16:31.211Z,58.63
2018-04-15T11:18:58.768Z,58.81
2018-04-15T11:21:28.410Z,59.10
2018-04-15T11:23:55.945Z,59.07
2018-04-15T11:26:23.484Z,58.60
2018-04-15T11:28:51.118Z,58.26
2018-04-15T11:31:18.647Z,57.98
2018-04-15T11:33:46.200Z,57.35
2018-04-15T11:36:13.786Z,57.02
2018-04-15T11:38:42.791Z,56.43
2018-04-15T11:41:10.333Z,55.89
2018-04-15T11:43:39.150Z,55.58
2018-04-15T11:46:07.587Z,55.74
2018-04-15T11:48:35.787Z,55.12
2018-04-15T11:51:03.319Z,54.38
2018-04-15T11:53:30.883Z,53.80
2018-04-15T11:55:59.139Z,53.49
2018-04-15T11:58:26.692Z,53.57
2018-04-15T12:00:54.920Z,53.00
2018-04-15T12:03:22.594Z,53.01
2018-04-15T12:05:50.812Z,52.77
2018-04-15T12:08:18.361Z,52.63
2018-04-15T12:10:46.758Z,52.13
2018-04-15T12:13:14.825Z,51.89
2018-04-15T12:15:43.235Z,52.37
2018-04-15T12:18:11.007Z,52.40
2018-04-15T12:20:38.665Z,52.43
2018-04-15T12:23:07.050Z,53.01
2018-04-15T12:25:34.624Z,53.27
2018-04-15T12:28:02.823Z,53.48
2018-04-15T12:30:30.370Z,54.04
2018-04-15T12:32:57.899Z,54.26
2018-04-15T12:35:25.460Z,54.30
2018-04-15T12:37:52.995Z,54.29
2018-04-15T12:40:20.530Z,54.52
2018-04-15T12:42:48.101Z,55.04
2018-04-15T12:45:16.524Z,55.53
2018-04-15T12:47:45.171Z,55.82
2018-04-15T12:50:12.715Z,55.83
2018-04-15T12:52:40.924Z,56.04
2018-04-15T12:55:09.529Z,56.26
2018-04-15T12:57:37.468Z,56.70
2018-04-15T13:00:05.651Z,56.97
2018-04-15T13:02:33.215Z,57.29
2018-04-15T13:05:00.770Z,57.77
2018-04-15T13:07:28.753Z,57.78
2018-04-15T13:09:56.343Z,57.90
2018-04-15T13:12:24.784Z,57.92
2018-04-15T13:14:52.937Z,58.19
2018-04-15T13:17:20.501Z,58.58
2018-04-15T13:19:48.081Z,58.66
2018-04-15T13:22:16.059Z,58.86
2018-04-15T13:24:43.583Z,59.05
2018-04-15T13:27:11.142Z,59.10
2018-04-15T13:29:39.092Z,59.61
2018-04-15T13:32:06.734Z,59.64
2018-04-15T13:34:34.337Z,60.25
2018-04-15T13:37:01.975Z,60.63
2018-04-15T13:39:30.360Z,60.72
2018-04-15T13:41:57.911Z,60.89
2018-04-15T13:44:26.165Z,60.93
2018-04-15T13:46:53.749Z,61.35
2018-04-15T13:49:21.968Z,61.79
2018-04-15T13:51:50.084Z,61.97
2018-04-15T13:54:17.703Z,62.09
2018-04-15T13:56:45.289Z,61.95
2018-04-15T13:59:12.956Z,62.04
2018-04-15T14:01:41.028Z,62.12
2018-04-15T14:04:08.688Z,61.79
2018-04-15T14:06:37.341Z,61.70
2018-04-15T14:09:04.971Z,61.85
2018-04-15T14:11:33.202Z,61.88
2018-04-15T14:14:01.298Z,62.03
2018-04-15T14:16:28.903Z,62.04
2018-04-15T14:18:56.482Z,62.17
2018-04-15T14:21:24.676Z,62.25
2018-04-15T14:23:52.227Z,61.99
2018-04-15T14:26:19.827Z,62.22
2018-04-15T14:28:47.428Z,62.13
2018-04-15T14:31:15.039Z,62.33
2018-04-15T14:33:42.620Z,62.26
2018-04-15T14:36:10.232Z,62.38
2018-04-15T14:38:38.154Z,62.28
2018-04-15T14:41:05.698Z,62.21
2018-04-15T14:43:33.974Z,62.59
2018-04-15T14:46:02.134Z,62.76
2018-04-15T14:48:30.554Z,62.90
2018-04-15T14:50:58.150Z,62.92
2018-04-15T14:53:25.706Z,63.09
2018-04-15T14:55:53.583Z,63.45
2018-04-15T14:58:21.137Z,63.48
2018-04-15T15:00:49.343Z,63.64
2018-04-15T15:03:16.905Z,63.69
2018-04-15T15:05:44.904Z,63.85
2018-04-15T15:08:12.473Z,64.25
2018-04-15T15:10:40.465Z,64.29
2018-04-15T15:13:09.068Z,64.30
2018-04-15T15:15:37.906Z,64.42
2018-04-15T15:18:05.473Z,64.74
2018-04-15T15:20:33.034Z,64.57
2018-04-15T15:23:02.048Z,64.74
2018-04-15T15:25:29.634Z,64.75
2018-04-15T15:27:57.239Z,64.71
2018-04-15T15:30:24.844Z,64.79
2018-04-15T15:32:52.421Z,64.69
2018-04-15T15:35:20.000Z,65.08
2018-04-15T15:37:47.584Z,65.17
2018-04-15T15:40:15.208Z,65.14
2018-04-15T15:45:25.692Z,65.69
2018-04-15T15:47:54.135Z,65.97
2018-04-15T15:50:21.678Z,66.27
2018-04-15T15:52:49.248Z,66.81
2018-04-15T15:55:16.814Z,67.39
2018-04-15T15:57:44.931Z,67.88
2018-04-15T16:00:13.184Z,68.29
2018-04-15T16:02:40.721Z,68.13
2018-04-15T16:05:09.030Z,68.26
2018-04-15T16:07:37.441Z,68.33
2018-04-15T16:10:05.051Z,68.34
2018-04-15T16:12:33.253Z,68.18
2018-04-15T16:15:01.433Z,68.47
2018-04-15T16:17:29.074Z,68.39
2018-04-15T16:19:56.647Z,68.37
2018-04-15T16:22:24.654Z,68.43
2018-04-15T16:24:52.206Z,68.58
2018-04-15T16:27:19.749Z,68.61
2018-04-15T16:29:47.308Z,68.52
2018-04-15T16:32:14.868Z,68.68
2018-04-15T16:34:42.405Z,68.68
2018-04-15T16:37:09.982Z,68.88
2018-04-15T16:39:37.863Z,68.70
2018-04-15T16:42:05.411Z,69.17
2018-04-15T16:44:34.046Z,69.17
2018-04-15T16:47:01.599Z,69.01
2018-04-15T16:49:30.010Z,68.96
2018-04-15T16:51:57.560Z,69.14
2018-04-15T16:54:25.154Z,69.40
2018-04-15T16:56:52.743Z,69.34
2018-04-15T16:59:20.284Z,69.34
2018-04-15T17:01:48.371Z,69.61
2018-04-15T17:04:15.918Z,69.35
2018-04-15T17:06:44.244Z,69.55
2018-04-15T17:09:11.779Z,69.28
2018-04-15T17:11:40.399Z,69.47
2018-04-15T17:14:08.964Z,69.21
2018-04-15T17:16:36.910Z,69.33
2018-04-15T17:19:05.240Z,69.54
2018-04-15T17:21:33.351Z,69.65
2018-04-15T17:24:00.885Z,69.96
2018-04-15T17:26:28.447Z,70.19
2018-04-15T17:28:56.022Z,70.43
2018-04-15T17:31:23.574Z,70.82
2018-04-15T17:33:51.200Z,71.08
2018-04-15T17:36:18.808Z,71.20
2018-04-15T17:38:46.350Z,71.25
2018-04-15T17:41:14.721Z,71.19
2018-04-15T17:43:42.941Z,71.62
2018-04-15T17:46:11.511Z,71.75
2018-04-15T17:48:39.866Z,71.68
2018-04-15T17:51:07.830Z,71.99
2018-04-15T17:53:35.388Z,72.12
2018-04-15T17:56:02.967Z,72.27
2018-04-15T17:58:30.530Z,72.34
2018-04-15T18:00:58.683Z,72.47
2018-04-15T18:03:26.236Z,72.55
2018-04-15T18:05:54.429Z,72.44
2018-04-15T18:08:21.976Z,72.55
2018-04-15T18:10:50.094Z,72.66
2018-04-15T18:13:18.216Z,72.73
2018-04-15T18:15:46.459Z,72.71
2018-04-15T18:18:14.026Z,72.45
2018-04-15T18:20:41.605Z,72.87
2018-04-15T18:23:09.809Z,72.65
2018-04-15T18:25:38.208Z,72.89
2018-04-15T18:28:05.817Z,72.74
2018-04-15T18:30:33.396Z,72.67
2018-04-15T18:33:00.991Z,72.57
2018-04-15T18:35:28.546Z,72.61
2018-04-15T18:37:56.084Z,72.37
2018-04-15T18:40:24.293Z,72.32
2018-04-15T18:42:51.840Z,72.34
2018-04-15T18:45:20.116Z,72.19
2018-04-15T18:47:48.374Z,72.32
2018-04-15T18:50:15.972Z,72.33
2018-04-15T18:52:43.491Z,72.21
2018-04-15T18:55:11.059Z,72.18
2018-04-15T18:57:39.130Z,72.26
2018-04-15T19:00:07.866Z,72.10
2018-04-15T19:02:35.431Z,72.16
2018-04-15T19:05:02.963Z,71.99
2018-04-15T19:07:30.948Z,71.94
2018-04-15T19:09:58.484Z,71.82
2018-04-15T19:12:27.131Z,72.04
2018-04-15T19:14:55.287Z,71.96
2018-04-15T19:17:22.824Z,71.96
2018-04-15T19:19:50.383Z,71.80
2018-04-15T19:22:18.704Z,71.85
2018-04-15T19:24:46.303Z,71.86
2018-04-15T19:27:14.532Z,71.80
2018-04-15T19:29:42.086Z,71.64
2018-04-15T19:32:10.052Z,71.57
2018-04-15T19:34:37.719Z,71.70
2018-04-15T19:37:06.023Z,71.77
2018-04-15T19:39:33.574Z,71.74
2018-04-15T19:42:01.128Z,71.51
2018-04-15T19:44:29.364Z,71.55
2018-04-15T19:46:56.919Z,71.42
2018-04-15T19:49:25.248Z,71.50
2018-04-15T19:51:52.818Z,71.33
2018-04-15T19:54:20.386Z,71.25
2018-04-15T19:56:47.971Z,71.32
2018-04-15T19:59:15.531Z,71.25
2018-04-15T20:01:43.716Z,71.23
2018-04-15T20:04:11.255Z,71.38
2018-04-15T20:06:40.068Z,71.40
2018-04-15T20:09:07.818Z,71.38
2018-04-15T20:11:35.998Z,71.33
2018-04-15T20:14:04.183Z,71.33
2018-04-15T20:16:31.751Z,71.29
2018-04-15T20:18:59.308Z,71.36
2018-04-15T20:21:27.518Z,71.78
2018-04-15T20:23:55.070Z,71.80
2018-04-15T20:26:22.611Z,71.94
2018-04-15T20:28:50.210Z,71.96
2018-04-15T20:31:17.739Z,71.74
2018-04-15T20:33:46.041Z,71.85
2018-04-15T20:36:14.470Z,71.94
2018-04-15T20:38:42.122Z,71.93
2018-04-15T20:41:09.673Z,71.85
2018-04-15T20:43:38.330Z,71.87
2018-04-15T20:46:07.098Z,71.85
2018-04-15T20:48:35.423Z,71.81
2018-04-15T20:51:02.985Z,71.75
2018-04-15T20:53:30.519Z,71.72
2018-04-15T20:55:58.125Z,71.65
2018-04-15T20:58:25.660Z,71.50
2018-04-15T21:00:53.939Z,71.51
2018-04-15T21:03:21.503Z,71.59
2018-04-15T21:05:50.321Z,71.57
2018-04-15T21:08:17.855Z,71.58
2018-04-15T21:10:46.028Z,71.94
2018-04-15T21:13:14.363Z,72.21
2018-04-15T21:15:42.510Z,71.81
2018-04-15T21:18:10.061Z,71.66
2018-04-15T21:20:38.286Z,71.64
2018-04-15T21:23:07.153Z,71.70
2018-04-15T21:25:34.698Z,71.61
2018-04-15T21:28:02.257Z,71.64
2018-04-15T21:30:29.835Z,71.54
2018-04-15T21:32:58.367Z,71.81
2018-04-15T21:35:25.926Z,71.71
2018-04-15T21:37:53.495Z,71.91
2018-04-15T21:40:21.558Z,71.80
2018-04-15T21:42:49.118Z,71.82
2018-04-15T21:45:17.520Z,71.84
2018-04-15T21:47:45.924Z,71.70
2018-04-15T21:50:13.515Z,71.67
2018-04-15T21:52:41.069Z,71.81
2018-04-15T21:55:08.997Z,71.77
2018-04-15T21:57:36.572Z,71.73
2018-04-15T22:00:04.171Z,71.79
2018-04-15T22:02:31.741Z,71.81
2018-04-15T22:04:59.310Z,71.78
2018-04-15T22:07:27.401Z,71.82
2018-04-15T22:09:54.954Z,71.83
2018-04-15T22:12:23.233Z,71.79
2018-04-15T22:14:51.477Z,71.99
2018-04-15T22:17:19.028Z,72.29
2018-04-15T22:19:46.607Z,72.16
2018-04-15T22:22:14.711Z,72.34
2018-04-15T22:24:42.306Z,72.53
2018-04-15T22:27:09.906Z,72.46
2018-04-15T22:29:39.291Z,72.50
2018-04-15T22:32:07.530Z,72.50
2018-04-15T22:34:35.047Z,72.42
2018-04-15T22:37:03.016Z,72.48
2018-04-15T22:39:31.286Z,72.43
2018-04-15T22:41:58.815Z,72.80
2018-04-15T22:44:27.114Z,72.92
2018-04-15T22:46:54.651Z,73.06
2018-04-15T22:49:23.630Z,73.07
2018-04-15T22:51:51.173Z,73.24
2018-04-15T22:54:18.711Z,73.16
2018-04-15T22:56:47.058Z,73.22
2018-04-15T22:59:14.624Z,73.18
2018-04-15T23:01:42.204Z,73.37
2018-04-15T23:04:10.024Z,73.57
2018-04-15T23:06:39.170Z,73.60
2018-04-15T23:09:06.833Z,73.92
2018-04-15T23:11:34.914Z,73.79
2018-04-15T23:14:03.492Z,73.88
2018-04-15T23:16:31.065Z,73.97
2018-04-15T23:18:58.623Z,73.88
2018-04-15T23:21:27.159Z,73.96
2018-04-15T23:23:54.751Z,73.85
2018-04-15T23:26:23.010Z,73.65
2018-04-15T23:28:50.530Z,73.67
2018-04-15T23:31:18.068Z,73.52
2018-04-15T23:33:45.626Z,73.64
2018-04-15T23:36:13.187Z,73.61
2018-04-15T23:38:41.299Z,73.75
2018-04-15T23:41:09.007Z,73.73
2018-04-15T23:43:38.148Z,73.98
2018-04-15T23:46:06.574Z,74.44
2018-04-15T23:48:34.821Z,74.55
2018-04-15T23:51:02.366Z,74.77
2018-04-15T23:53:29.902Z,74.72
2018-04-15T23:55:57.458Z,74.51
2018-04-15T23:58:25.014Z,74.45
